createdAt,value
2022-09-03T00:00:00.483Z,33.83
2022-09-03T00:05:29.864Z,33.85
2022-09-03T00:11:13.541Z,34.17
2022-09-03T00:16:49.879Z,34.02
2022-09-03T00:22:28.917Z,33.69
2022-09-03T00:27:55.425Z,33.96
2022-09-03T00:33:29.190Z,33.55
2022-09-03T00:38:51.718Z,33.93
2022-09-03T00:44:35.346Z,33.64
2022-09-03T00:50:25.107Z,33.85
2022-09-03T00:55:47.677Z,33.90
2022-09-03T01:01:48.055Z,34.04
2022-09-03T01:07:34.451Z,34.18
2022-09-03T01:13:02.059Z,34.03
2022-09-03T01:18:58.330Z,34.18
2022-09-03T01:24:45.200Z,34.20
2022-09-03T01:30:24.309Z,34.10
2022-09-03T01:35:48.725Z,33.80
2022-09-03T01:41:42.547Z,34.21
2022-09-03T01:47:21.798Z,33.78
2022-09-03T01:52:59.821Z,34.14
2022-09-03T01:58:33.709Z,34.54
2022-09-03T02:04:00.307Z,34.18
2022-09-03T02:09:21.997Z,33.88
2022-09-03T02:14:47.289Z,34.08
2022-09-03T02:20:12.181Z,34.15
2022-09-03T02:25:38.148Z,34.21
2022-09-03T02:31:00.294Z,34.31
2022-09-03T02:36:29.931Z,34.05
2022-09-03T02:41:56.063Z,34.18
2022-09-03T02:47:20.817Z,34.65
2022-09-03T02:52:42.559Z,34.24
2022-09-03T02:58:06.966Z,34.24
2022-09-03T03:03:28.923Z,34.40
2022-09-03T03:08:51.113Z,34.50
2022-09-03T03:14:12.997Z,34.11
2022-09-03T03:19:34.875Z,34.47
2022-09-03T03:24:57.873Z,34.28
2022-09-03T03:30:20.145Z,34.52
2022-09-03T03:35:42.825Z,34.56
2022-09-03T03:41:10.419Z,34.60
2022-09-03T03:46:37.587Z,34.54
2022-09-03T03:51:59.435Z,34.63
2022-09-03T03:57:21.829Z,34.57
2022-09-03T04:02:43.674Z,34.42
2022-09-03T04:08:05.447Z,34.68
2022-09-03T04:13:35.588Z,34.37
2022-09-03T04:18:57.550Z,34.81
2022-09-03T04:24:19.252Z,35.00
2022-09-03T04:29:40.952Z,34.54
2022-09-03T04:35:02.648Z,34.61
2022-09-03T04:40:24.368Z,34.43
2022-09-03T04:45:46.146Z,34.62
2022-09-03T04:51:19.787Z,34.44
2022-09-03T04:56:41.613Z,34.67
2022-09-03T05:02:03.473Z,34.69
2022-09-03T05:07:28.557Z,34.93
2022-09-03T05:13:05.225Z,34.56
2022-09-03T05:18:26.944Z,34.60
2022-09-03T05:23:53.270Z,34.96
2022-09-03T05:29:16.227Z,34.71
2022-09-03T05:34:37.971Z,34.57
2022-09-03T05:39:59.747Z,34.66
2022-09-03T05:45:21.542Z,34.74
2022-09-03T05:50:43.299Z,34.76
2022-09-03T05:56:13.057Z,34.74
2022-09-03T06:01:43.984Z,34.58
2022-09-03T06:07:13.112Z,34.41
2022-09-03T06:12:36.129Z,34.66
2022-09-03T06:17:57.812Z,34.54
2022-09-03T06:23:20.408Z,35.21
2022-09-03T06:28:46.359Z,35.29
2022-09-03T06:34:08.579Z,35.24
2022-09-03T06:39:30.945Z,34.68
2022-09-03T06:44:52.687Z,34.78
2022-09-03T06:50:14.488Z,34.99
2022-09-03T06:55:40.205Z,34.96
2022-09-03T07:01:07.105Z,34.96
2022-09-03T07:06:32.436Z,34.78
2022-09-03T07:11:54.501Z,34.69
2022-09-03T07:17:16.262Z,34.68
2022-09-03T07:22:37.987Z,34.62
2022-09-03T07:28:00.243Z,34.33
2022-09-03T07:33:21.982Z,33.83
2022-09-03T07:38:45.236Z,33.91
2022-09-03T07:44:08.830Z,33.67
2022-09-03T07:49:30.606Z,33.87
2022-09-03T07:54:52.336Z,33.69
2022-09-03T08:00:14.969Z,33.16
2022-09-03T08:05:37.192Z,33.41
2022-09-03T08:11:13.581Z,33.01
2022-09-03T08:16:41.955Z,32.94
2022-09-03T08:22:03.856Z,32.91
2022-09-03T08:27:26.328Z,32.97
2022-09-03T08:32:48.212Z,32.78
2022-09-03T08:38:10.946Z,32.76
2022-09-03T08:43:47.398Z,32.94
2022-09-03T08:49:14.284Z,32.84
2022-09-03T08:54:37.778Z,32.92
2022-09-03T09:00:01.124Z,32.98
2022-09-03T09:05:32.727Z,32.90
2022-09-03T09:11:09.115Z,32.86
2022-09-03T09:16:41.685Z,33.44
2022-09-03T09:22:10.447Z,32.92
2022-09-03T09:27:33.149Z,33.04
2022-09-03T09:32:55.531Z,33.48
2022-09-03T09:38:30.260Z,33.26
2022-09-03T09:44:03.223Z,33.30
2022-09-03T09:49:33.642Z,33.62
2022-09-03T09:55:14.902Z,33.31
2022-09-03T10:00:37.980Z,33.14
2022-09-03T10:06:26.406Z,33.25
2022-09-03T10:11:52.208Z,33.26
2022-09-03T10:17:40.319Z,33.44
2022-09-03T10:23:04.749Z,33.40
2022-09-03T10:28:28.882Z,33.91
2022-09-03T10:34:00.988Z,34.16
2022-09-03T10:39:31.770Z,34.09
2022-09-03T10:45:19.642Z,34.53
2022-09-03T10:50:59.379Z,35.17
2022-09-03T10:56:30.233Z,35.19
2022-09-03T11:02:07.317Z,35.28
2022-09-03T11:07:37.776Z,35.78
2022-09-03T11:13:09.292Z,35.98
2022-09-03T11:19:07.950Z,36.35
2022-09-03T11:24:34.136Z,36.32
2022-09-03T11:30:03.762Z,36.24
2022-09-03T11:35:28.577Z,36.55
2022-09-03T11:40:59.391Z,36.38
2022-09-03T11:46:21.967Z,36.56
2022-09-03T11:51:44.235Z,36.59
2022-09-03T11:57:14.953Z,36.69
2022-09-03T12:02:39.345Z,36.67
2022-09-03T12:08:10.001Z,36.80
2022-09-03T12:13:46.745Z,36.44
2022-09-03T12:19:22.416Z,36.42
2022-09-03T12:24:45.120Z,36.61
2022-09-03T12:30:17.016Z,36.56
2022-09-03T12:41:31.912Z,36.60
2022-09-03T12:47:38.112Z,36.56
2022-09-03T12:53:03.712Z,36.26
2022-09-03T12:58:31.659Z,36.64
2022-09-03T13:03:59.517Z,36.51
2022-09-03T13:09:24.930Z,36.54
2022-09-03T13:14:52.473Z,36.68
2022-09-03T13:20:29.855Z,36.65
2022-09-03T13:26:06.320Z,36.31
2022-09-03T13:31:35.489Z,36.46
2022-09-03T13:37:22.574Z,36.34
2022-09-03T13:43:32.370Z,36.46
2022-09-03T13:49:22.031Z,36.55
2022-09-03T13:54:50.062Z,36.72
2022-09-03T14:00:24.607Z,36.62
2022-09-03T14:06:05.515Z,36.53
2022-09-03T14:11:27.134Z,36.39
2022-09-03T14:16:59.672Z,36.52
2022-09-03T14:22:30.239Z,36.73
2022-09-03T14:27:52.244Z,36.92
2022-09-03T14:33:33.344Z,36.83
2022-09-03T14:39:19.970Z,37.14
2022-09-03T14:44:46.175Z,37.29
2022-09-03T14:50:28.232Z,38.12
2022-09-03T14:56:09.293Z,38.68
2022-09-03T15:01:39.324Z,38.63
2022-09-03T15:07:31.067Z,38.53
2022-09-03T15:13:08.865Z,38.72
2022-09-03T15:18:42.469Z,38.84
2022-09-03T15:24:19.792Z,38.77
2022-09-03T15:30:02.120Z,38.70
2022-09-03T15:35:45.858Z,38.71
2022-09-03T15:41:40.774Z,38.59
2022-09-03T15:47:14.085Z,38.50
2022-09-03T15:52:59.325Z,38.84
2022-09-03T15:58:34.474Z,38.18
2022-09-03T16:04:09.873Z,38.39
2022-09-03T16:09:44.684Z,38.34
2022-09-03T16:15:15.708Z,38.41
2022-09-03T16:21:20.657Z,38.40
2022-09-03T16:27:03.838Z,38.69
2022-09-03T16:32:47.072Z,38.67
2022-09-03T16:38:31.316Z,38.84
2022-09-03T16:44:38.997Z,38.82
2022-09-03T16:50:40.978Z,38.71
2022-09-03T16:56:07.860Z,38.78
2022-09-03T17:02:01.795Z,39.12
2022-09-03T17:08:06.230Z,39.06
2022-09-03T17:14:01.489Z,38.91
2022-09-03T17:19:31.751Z,39.09
2022-09-03T17:25:03.613Z,38.81
2022-09-03T17:30:47.126Z,38.96
2022-09-03T17:36:08.766Z,39.24
2022-09-03T17:42:15.433Z,38.96
2022-09-03T17:48:03.401Z,38.88
2022-09-03T17:53:38.699Z,38.97
2022-09-03T17:59:17.060Z,39.06
2022-09-03T18:04:55.050Z,38.85
2022-09-03T18:10:38.399Z,39.11
2022-09-03T18:16:11.421Z,39.18
2022-09-03T18:21:57.515Z,39.27
2022-09-03T18:27:55.328Z,39.67
2022-09-03T18:33:39.389Z,39.40
2022-09-03T18:39:45.790Z,39.97
2022-09-03T18:52:18.917Z,40.44
2022-09-03T18:58:38.833Z,40.41
2022-09-03T19:04:28.333Z,40.60
2022-09-03T19:10:30.856Z,40.80
2022-09-03T19:16:56.149Z,40.83
2022-09-03T19:23:05.790Z,40.82
2022-09-03T19:28:50.347Z,40.96
2022-09-03T19:35:21.647Z,40.89
2022-09-03T19:41:20.662Z,41.18
2022-09-03T19:47:08.135Z,41.00
2022-09-03T19:53:06.536Z,41.48
2022-09-03T19:58:51.032Z,41.24
2022-09-03T20:04:34.104Z,41.07
2022-09-03T20:10:19.009Z,41.22
2022-09-03T20:15:44.930Z,41.47
2022-09-03T20:21:18.546Z,41.76
2022-09-03T20:26:51.099Z,41.41
2022-09-03T20:32:46.602Z,41.74
2022-09-03T20:38:08.292Z,41.47
2022-09-03T20:43:48.188Z,41.41
2022-09-03T20:49:48.581Z,41.46
2022-09-03T20:55:21.684Z,41.35
2022-09-03T21:00:50.269Z,41.46
2022-09-03T21:06:32.177Z,41.08
2022-09-03T21:12:15.235Z,41.39
2022-09-03T21:17:42.871Z,41.33
2022-09-03T21:23:28.817Z,41.10
2022-09-03T21:28:55.944Z,40.90
2022-09-03T21:34:39.982Z,40.89
2022-09-03T21:40:03.337Z,40.69
2022-09-03T21:45:52.358Z,41.01
2022-09-03T21:51:22.066Z,41.22
2022-09-03T21:57:04.782Z,40.94
2022-09-03T22:02:33.058Z,40.70
2022-09-03T22:08:18.457Z,40.72
2022-09-03T22:14:01.301Z,40.66
2022-09-03T22:19:23.500Z,40.67
2022-09-03T22:25:02.186Z,40.75
2022-09-03T22:30:24.069Z,40.34
2022-09-03T22:35:54.626Z,40.84
2022-09-03T22:41:57.799Z,40.90
2022-09-03T22:47:28.548Z,40.64
2022-09-03T22:53:11.509Z,40.92
2022-09-03T22:58:45.210Z,41.07
2022-09-03T23:04:34.704Z,40.59
2022-09-03T23:10:02.183Z,40.44
2022-09-03T23:15:30.556Z,40.53
2022-09-03T23:21:06.255Z,40.74
2022-09-03T23:26:48.910Z,40.54
2022-09-03T23:32:10.730Z,40.63
2022-09-03T23:37:47.220Z,40.54
2022-09-03T23:43:42.374Z,40.45
2022-09-03T23:49:29.226Z,40.74
2022-09-03T23:55:24.627Z,40.22
